VNKT/KTM METAR and TAF weather

Enter ICAO airport designator
Station Type Date Time Source
VNKT METAR 2020/04/05 07:20 UTC NOAA

VNKT 050720Z 24007KT 200V300 8000 FEW020 SCT030 25/08 Q1018 NOSIG


Station Type Date Time Source
VNKT Decoded METAR 2020/04/05 07:20 UTC NOAA

Kathmandu Airport, Nepal (VNKT) 27-42N 085-22E 1337M
Apr 05, 2020 - 03:20 AM EDT / 2020.04.05 0720 UTC
Wind: from the WSW (240 degrees) at 8 MPH (7 KT) (direction variable):0
Visibility: 4 mile(s):0
Sky conditions: partly cloudy
Temperature: 77 F (25 C)
Dew Point: 46 F (8 C)
Relative Humidity: 33%
Pressure (altimeter): 30.06 in. Hg (1018 hPa)
ob: VNKT 050720Z 24007KT 200V300 8000 FEW020 SCT030 25/08 Q1018 NOSIG
cycle: 7

Station Type Date Time Source
VNKT TAF 2020/04/05 06:45 UTC NOAA

TAF TAF VNKT 050500Z 0506/0606 15003KT 6000 FEW015
BECMG 0507/0508 25010KT 8000 FEW025
BECMG 0514/0515 19004KT 7000 FEW020
BECMG 0600/0602 VRB02KT 4000 BR FEW015
BECMG 0604/0605 12004KT 6000 FEW020

Example: see airport list